Time;durP1;ratioP1;P1;durP2;ratioP2;P2;SDS_P1;SDS_P2;PMS_P1;PMS_P2;Temp;Humidity;BMP_temperature;BMP_pressure;BME280_temperature;BME280_humidity;BME280_pressure;Samples;Min_cycle;Max_cycle;Signal;HPM_P1;HPM_P2
2021/05/08 00:00:59;;;;;;;4.68;3.50;;;5.20;66.40;;;;;;5037406;28;20531;-65
2021/05/08 00:03:27;;;;;;;5.65;3.70;;;5.10;66.50;;;;;;5040711;28;20041;-65
2021/05/08 00:05:58;;;;;;;6.72;4.00;;;5.10;66.80;;;;;;5039001;28;20033;-65
2021/05/08 00:08:26;;;;;;;5.40;3.55;;;5.10;66.90;;;;;;5039782;28;20033;-65
2021/05/08 00:10:59;;;;;;;7.05;4.15;;;5.10;66.90;;;;;;5038683;28;20522;-65
2021/05/08 00:13:29;;;;;;;4.68;3.75;;;5.00;67.00;;;;;;5038121;28;20040;-66
2021/05/08 00:15:55;;;;;;;6.20;4.38;;;5.00;66.80;;;;;;5039754;28;20124;-63
2021/05/08 00:18:27;;;;;;;6.90;4.28;;;5.00;66.70;;;;;;5038332;28;20148;-67
2021/05/08 00:20:55;;;;;;;8.40;4.40;;;5.00;66.80;;;;;;5043507;28;20071;-67
2021/05/08 00:23:23;;;;;;;9.73;4.38;;;5.00;66.60;;;;;;5031799;28;20030;-66
2021/05/08 00:25:53;;;;;;;7.03;4.50;;;4.90;66.50;;;;;;5039353;28;20531;-66
2021/05/08 00:28:19;;;;;;;6.28;3.90;;;4.90;66.60;;;;;;5030624;28;20416;-64
2021/05/08 00:30:47;;;;;;;6.07;3.65;;;4.80;66.60;;;;;;5029394;28;20030;-63
2021/05/08 00:33:15;;;;;;;5.78;3.42;;;4.80;66.70;;;;;;5029499;28;20083;-64
2021/05/08 00:35:47;;;;;;;4.63;3.22;;;4.80;66.80;;;;;;5033233;28;20033;-64
2021/05/08 00:38:15;;;;;;;5.60;3.45;;;4.80;66.60;;;;;;5035509;28;20029;-65
2021/05/08 00:40:48;;;;;;;5.30;3.40;;;4.70;66.40;;;;;;5032613;28;20102;-65
2021/05/08 00:43:20;;;;;;;4.18;3.17;;;4.60;66.50;;;;;;5036250;28;20033;-65
2021/05/08 00:45:50;;;;;;;4.47;2.67;;;4.60;67.60;;;;;;5031129;28;20037;-65
2021/05/08 00:48:23;;;;;;;4.05;2.55;;;4.50;66.60;;;;;;5031742;28;20618;-65
2021/05/08 00:50:50;;;;;;;3.60;2.28;;;4.50;66.80;;;;;;5040679;28;20033;-66
2021/05/08 00:53:21;;;;;;;3.45;2.28;;;4.50;66.70;;;;;;5037672;28;20092;-65
2021/05/08 00:55:47;;;;;;;3.72;2.63;;;4.50;67.00;;;;;;5034880;28;20123;-65
2021/05/08 00:58:15;;;;;;;2.50;2.30;;;4.50;66.80;;;;;;5034090;28;20152;-65
2021/05/08 01:00:41;;;;;;;2.65;2.45;;;4.50;66.90;;;;;;5032326;28;20037;-65
2021/05/08 01:03:12;;;;;;;2.75;2.20;;;4.50;66.60;;;;;;5034049;28;20120;-64
2021/05/08 01:05:39;;;;;;;3.08;2.40;;;4.40;66.70;;;;;;5038452;28;20040;-65
2021/05/08 01:08:08;;;;;;;3.05;2.30;;;4.40;66.80;;;;;;5036294;28;20057;-65
2021/05/08 01:10:35;;;;;;;3.38;1.88;;;4.30;66.60;;;;;;5031047;28;20025;-65
2021/05/08 01:13:04;;;;;;;2.28;2.08;;;4.30;66.90;;;;;;5030587;28;20091;-64
2021/05/08 01:15:32;;;;;;;2.38;2.00;;;4.20;66.90;;;;;;5034561;28;20036;-65
2021/05/08 01:17:58;;;;;;;2.53;2.22;;;4.20;67.00;;;;;;5035410;28;20034;-65
2021/05/08 01:20:26;;;;;;;4.30;2.47;;;4.20;67.00;;;;;;5034779;28;20091;-65
2021/05/08 01:22:56;;;;;;;7.05;2.58;;;4.10;67.00;;;;;;5036299;28;20029;-65
2021/05/08 01:25:28;;;;;;;3.38;2.60;;;4.10;67.30;;;;;;5032701;28;20087;-64
2021/05/08 01:27:57;;;;;;;3.17;2.70;;;4.10;67.30;;;;;;5035808;28;20506;-64
2021/05/08 01:30:29;;;;;;;2.78;2.55;;;4.10;67.30;;;;;;5031912;28;20052;-64
2021/05/08 01:32:58;;;;;;;4.35;2.63;;;4.00;67.60;;;;;;5033162;28;20116;-65
2021/05/08 01:35:26;;;;;;;2.92;2.42;;;4.00;67.90;;;;;;5033375;28;20151;-65
2021/05/08 01:37:54;;;;;;;3.95;2.50;;;3.90;67.90;;;;;;5034904;28;20037;-64
2021/05/08 01:40:29;;;;;;;3.15;2.53;;;3.90;68.00;;;;;;5035784;28;20034;-65
2021/05/08 01:42:57;;;;;;;2.80;2.30;;;3.90;68.60;;;;;;5034817;28;20041;-65
2021/05/08 01:45:28;;;;;;;3.92;2.40;;;3.90;68.40;;;;;;5031042;28;20067;-65
2021/05/08 01:47:59;;;;;;;4.63;2.40;;;3.90;68.40;;;;;;5037246;28;20033;-65
2021/05/08 01:50:29;;;;;;;3.08;2.10;;;3.80;68.20;;;;;;5032293;28;20037;-64
2021/05/08 01:52:59;;;;;;;4.53;2.10;;;3.80;68.40;;;;;;5035910;28;20053;-64
2021/05/08 01:55:30;;;;;;;3.50;1.95;;;3.80;68.50;;;;;;5031294;28;20042;-64
2021/05/08 01:57:58;;;;;;;2.35;2.15;;;3.80;68.40;;;;;;5033664;28;20032;-66
2021/05/08 02:00:31;;;;;;;2.72;2.30;;;3.80;68.40;;;;;;5033403;28;20512;-65
2021/05/08 02:03:00;;;;;;;2.80;2.20;;;3.70;68.40;;;;;;5035906;28;20045;-66
2021/05/08 02:05:34;;;;;;;3.38;1.85;;;3.70;68.40;;;;;;5040198;28;20041;-65
2021/05/08 02:08:06;;;;;;;2.50;2.15;;;3.70;68.80;;;;;;5032479;28;20037;-65
2021/05/08 02:10:39;;;;;;;3.00;2.28;;;3.70;68.50;;;;;;5029311;28;20030;-65
2021/05/08 02:13:13;;;;;;;3.70;2.42;;;3.70;68.90;;;;;;5035060;28;20064;-64
2021/05/08 02:15:41;;;;;;;2.72;2.28;;;3.70;69.90;;;;;;5033443;28;20664;-65
2021/05/08 02:18:10;;;;;;;2.75;2.45;;;3.70;68.80;;;;;;5033209;28;20507;-66
2021/05/08 02:20:42;;;;;;;2.42;2.22;;;3.80;68.70;;;;;;5036550;28;20029;-65
2021/05/08 02:23:13;;;;;;;4.47;2.40;;;3.80;68.70;;;;;;5031970;28;20041;-64
2021/05/08 02:25:45;;;;;;;2.40;2.20;;;3.70;68.40;;;;;;5031679;28;20488;-65
2021/05/08 02:28:16;;;;;;;5.47;2.33;;;3.80;68.60;;;;;;5032551;28;20049;-65
2021/05/08 02:30:46;;;;;;;3.35;2.63;;;3.80;68.60;;;;;;5031614;28;20508;-65
2021/05/08 02:33:16;;;;;;;3.92;2.60;;;3.80;68.60;;;;;;5032638;28;20049;-65
2021/05/08 02:35:44;;;;;;;5.75;2.40;;;3.80;68.40;;;;;;5032356;28;20120;-64
2021/05/08 02:38:10;;;;;;;3.40;2.28;;;3.70;68.20;;;;;;5032983;28;20034;-65
2021/05/08 02:40:39;;;;;;;3.38;2.63;;;3.70;68.20;;;;;;5028650;28;20032;-64
2021/05/08 02:43:08;;;;;;;4.10;2.55;;;3.70;68.40;;;;;;5034490;28;20057;-64
2021/05/08 02:45:36;;;;;;;4.47;2.47;;;3.70;68.40;;;;;;5031412;28;20029;-66
2021/05/08 02:48:05;;;;;;;3.72;2.55;;;3.60;68.40;;;;;;5035918;28;20068;-65
2021/05/08 02:50:32;;;;;;;2.75;2.50;;;3.60;68.60;;;;;;5034384;28;20447;-65
2021/05/08 02:53:00;;;;;;;3.80;2.58;;;3.60;68.80;;;;;;5034966;28;20174;-64
2021/05/08 02:55:31;;;;;;;4.10;2.13;;;3.60;68.70;;;;;;5033011;28;20104;-65
2021/05/08 02:58:02;;;;;;;3.35;2.40;;;3.50;68.70;;;;;;5040277;28;20507;-65
2021/05/08 03:00:32;;;;;;;5.65;2.47;;;3.50;68.90;;;;;;5034842;28;20116;-64
2021/05/08 03:03:05;;;;;;;3.25;2.28;;;3.50;69.00;;;;;;5032097;28;20128;-64
2021/05/08 03:05:35;;;;;;;4.57;2.38;;;3.50;69.00;;;;;;5030915;28;20517;-65
2021/05/08 03:08:03;;;;;;;2.88;2.13;;;3.50;68.30;;;;;;5030951;28;20068;-66
2021/05/08 03:10:33;;;;;;;3.17;2.25;;;3.50;68.80;;;;;;5032066;28;20037;-65
2021/05/08 03:13:03;;;;;;;4.53;2.30;;;3.50;69.00;;;;;;5032513;28;20041;-64
2021/05/08 03:15:31;;;;;;;3.33;2.63;;;3.50;69.00;;;;;;5030229;28;20038;-66
2021/05/08 03:17:57;;;;;;;2.95;2.28;;;3.40;69.00;;;;;;5033294;28;20041;-66
2021/05/08 03:20:22;;;;;;;3.78;2.47;;;3.40;68.90;;;;;;5032431;28;20086;-65
2021/05/08 03:22:54;;;;;;;2.20;2.00;;;3.40;69.10;;;;;;5036696;28;20065;-66
2021/05/08 03:25:19;;;;;;;3.15;2.40;;;3.30;69.10;;;;;;5033863;28;20049;-63
2021/05/08 03:27:45;;;;;;;2.55;2.33;;;3.30;69.10;;;;;;5030327;28;20069;-66
2021/05/08 03:30:13;;;;;;;2.65;2.45;;;3.30;69.10;;;;;;5032350;28;20041;-65
2021/05/08 03:32:44;;;;;;;3.60;2.53;;;3.30;69.20;;;;;;5033079;28;20038;-65
2021/05/08 03:35:14;;;;;;;2.67;2.15;;;3.30;69.10;;;;;;5033524;28;20040;-66
2021/05/08 03:37:44;;;;;;;4.28;2.20;;;3.30;69.20;;;;;;5035933;28;20493;-65
2021/05/08 03:40:10;;;;;;;2.65;2.35;;;3.30;69.00;;;;;;5032862;28;20408;-65
2021/05/08 03:42:36;;;;;;;3.03;2.42;;;3.30;69.20;;;;;;5033720;28;20033;-65
2021/05/08 03:45:05;;;;;;;3.08;2.55;;;3.20;69.30;;;;;;5033376;28;20055;-66
2021/05/08 03:47:30;;;;;;;5.40;2.72;;;3.20;69.50;;;;;;5032008;28;20037;-65
2021/05/08 03:49:58;;;;;;;3.45;2.80;;;3.10;69.40;;;;;;5029661;28;20052;-65
2021/05/08 03:52:24;;;;;;;4.90;3.30;;;3.10;69.70;;;;;;5031295;28;20032;-66
2021/05/08 03:54:54;;;;;;;3.90;3.00;;;3.10;69.80;;;;;;5033390;28;20034;-65
2021/05/08 03:57:21;;;;;;;4.03;3.22;;;3.10;70.00;;;;;;5033182;28;20148;-65
2021/05/08 03:59:52;;;;;;;5.05;2.97;;;3.10;69.90;;;;;;5038230;28;20116;-66
2021/05/08 04:02:20;;;;;;;4.15;3.22;;;3.10;70.00;;;;;;5036250;28;20065;-66
2021/05/08 04:04:45;;;;;;;4.03;3.13;;;3.10;70.10;;;;;;5037090;28;20037;-65
2021/05/08 04:07:15;;;;;;;5.18;3.05;;;3.10;70.00;;;;;;5035798;28;20091;-64
2021/05/08 04:09:46;;;;;;;5.07;3.50;;;3.10;70.10;;;;;;5042630;28;20045;-65
2021/05/08 04:12:16;;;;;;;4.47;3.47;;;3.20;70.10;;;;;;5031867;28;20037;-65
2021/05/08 04:14:44;;;;;;;5.15;3.55;;;3.20;70.10;;;;;;5037097;28;20062;-65
2021/05/08 04:17:16;;;;;;;7.30;4.18;;;3.20;70.00;;;;;;5034231;28;20036;-67
2021/05/08 04:19:42;;;;;;;4.88;3.28;;;3.20;70.00;;;;;;5037253;28;20100;-65
2021/05/08 04:22:10;;;;;;;6.60;3.58;;;3.20;70.10;;;;;;5033893;28;20136;-65
2021/05/08 04:24:36;;;;;;;5.32;3.70;;;3.20;70.30;;;;;;5036890;28;20134;-64
2021/05/08 04:27:10;;;;;;;5.80;3.67;;;3.20;70.40;;;;;;5034543;28;20513;-65
2021/05/08 04:29:40;;;;;;;5.22;3.65;;;3.20;70.60;;;;;;5038197;28;20037;-66
2021/05/08 04:32:10;;;;;;;5.82;3.58;;;3.20;70.70;;;;;;5034578;28;20069;-65
2021/05/08 04:34:38;;;;;;;3.92;3.45;;;3.20;70.80;;;;;;5034052;28;20029;-63
2021/05/08 04:37:06;;;;;;;4.65;3.67;;;3.20;70.80;;;;;;5049416;28;20041;-65
2021/05/08 04:39:34;;;;;;;5.68;3.53;;;3.20;70.80;;;;;;5033492;28;20021;-65
2021/05/08 04:42:00;;;;;;;7.68;3.53;;;3.20;71.00;;;;;;5037069;28;20037;-65
2021/05/08 04:44:26;;;;;;;5.68;3.65;;;3.20;71.00;;;;;;5034679;28;20400;-65
2021/05/08 04:46:59;;;;;;;3.90;3.33;;;3.20;71.00;;;;;;5032539;28;20056;-64
2021/05/08 04:49:26;;;;;;;4.38;3.83;;;3.20;71.30;;;;;;5035596;28;20049;-66
2021/05/08 04:51:53;;;;;;;4.28;3.80;;;3.20;71.30;;;;;;5032997;28;20109;-66
2021/05/08 04:54:19;;;;;;;5.05;3.60;;;3.30;71.30;;;;;;5033307;28;20037;-66
2021/05/08 04:56:52;;;;;;;6.50;3.80;;;3.30;71.10;;;;;;5032992;28;20026;-65
2021/05/08 04:59:19;;;;;;;4.80;3.80;;;3.40;71.40;;;;;;5036501;28;20037;-65
2021/05/08 05:01:52;;;;;;;5.25;4.50;;;3.40;71.20;;;;;;5036313;28;20032;-65
2021/05/08 05:04:22;;;;;;;6.13;4.28;;;3.40;71.50;;;;;;5032690;28;20044;-65
2021/05/08 05:06:50;;;;;;;5.55;4.30;;;3.50;71.50;;;;;;5036913;28;20057;-64
2021/05/08 05:09:18;;;;;;;5.75;4.10;;;3.60;71.50;;;;;;5034236;28;20416;-66
2021/05/08 05:11:44;;;;;;;4.57;4.03;;;3.60;71.40;;;;;;5037303;28;20032;-65
2021/05/08 05:14:12;;;;;;;4.53;3.88;;;3.60;71.30;;;;;;5035177;28;20933;-65
2021/05/08 05:16:42;;;;;;;5.38;4.20;;;3.70;71.40;;;;;;5038098;28;20051;-64
2021/05/08 05:19:10;;;;;;;5.25;3.97;;;3.70;71.30;;;;;;5032927;28;20563;-64
2021/05/08 05:21:38;;;;;;;6.78;4.30;;;3.80;71.50;;;;;;5035284;28;20732;-67
2021/05/08 05:24:07;;;;;;;4.40;3.65;;;3.80;71.50;;;;;;5037348;28;20037;-67
2021/05/08 05:26:38;;;;;;;6.90;4.05;;;3.90;71.70;;;;;;5034951;28;20119;-65
2021/05/08 05:29:09;;;;;;;4.60;3.92;;;4.00;71.70;;;;;;5035950;28;20063;-65
2021/05/08 05:31:37;;;;;;;4.95;4.10;;;4.00;71.50;;;;;;5032833;28;20037;-65
2021/05/08 05:34:03;;;;;;;8.32;4.97;;;4.10;71.50;;;;;;5028366;28;20037;-65
2021/05/08 05:36:31;;;;;;;7.43;5.55;;;4.10;71.50;;;;;;5029255;28;20116;-65
2021/05/08 05:38:59;;;;;;;5.95;4.25;;;4.20;71.50;;;;;;5028058;28;20091;-65
2021/05/08 05:41:27;;;;;;;7.22;4.53;;;4.30;71.60;;;;;;5028298;28;20507;-64
2021/05/08 05:43:55;;;;;;;9.35;4.40;;;4.30;71.70;;;;;;5029117;28;20041;-65
2021/05/08 05:46:23;;;;;;;6.78;4.63;;;4.40;71.70;;;;;;5028596;28;20106;-66
2021/05/08 05:48:54;;;;;;;5.30;4.30;;;4.40;71.60;;;;;;5026603;28;20072;-64
2021/05/08 05:51:24;;;;;;;5.97;4.18;;;4.50;71.90;;;;;;5032795;28;20053;-64
2021/05/08 05:53:56;;;;;;;5.35;4.85;;;4.50;71.70;;;;;;5016592;28;20041;-64
2021/05/08 05:56:32;;;;;;;6.65;5.13;;;4.50;71.90;;;;;;5020538;28;20131;-66
2021/05/08 05:58:58;;;;;;;7.45;5.07;;;4.60;72.50;;;;;;5031913;28;20045;-64
2021/05/08 06:01:23;;;;;;;6.43;4.80;;;4.60;72.00;;;;;;5021764;28;20044;-65
2021/05/08 06:03:51;;;;;;;5.97;4.68;;;4.60;72.00;;;;;;5018029;28;20040;-64
2021/05/08 06:06:18;;;;;;;6.22;4.57;;;4.70;72.60;;;;;;5021327;28;21504;-65
2021/05/08 06:08:43;;;;;;;6.60;4.50;;;4.70;72.70;;;;;;5021458;28;20068;-65
2021/05/08 06:11:09;;;;;;;7.80;5.03;;;4.80;72.70;;;;;;5015079;28;20720;-65
2021/05/08 06:13:37;;;;;;;7.60;4.70;;;4.90;72.60;;;;;;5019616;28;20413;-65
2021/05/08 06:16:06;;;;;;;7.68;4.82;;;5.00;72.60;;;;;;5018612;28;21055;-66
2021/05/08 06:18:33;;;;;;;7.95;4.88;;;5.10;72.50;;;;;;5017925;28;20661;-65
2021/05/08 06:21:04;;;;;;;5.70;4.50;;;5.10;72.40;;;;;;5037513;28;20041;-65
2021/05/08 06:23:33;;;;;;;5.97;4.68;;;5.20;72.40;;;;;;5018179;28;20116;-65
2021/05/08 06:26:01;;;;;;;6.43;4.65;;;5.30;72.40;;;;;;5017961;28;20061;-65
2021/05/08 06:28:29;;;;;;;8.20;5.50;;;5.30;72.70;;;;;;5017902;28;20049;-65
2021/05/08 06:30:57;;;;;;;5.78;4.80;;;5.40;73.10;;;;;;5023226;28;20087;-65
2021/05/08 06:33:28;;;;;;;6.25;4.85;;;5.40;72.80;;;;;;5021069;28;20045;-65
2021/05/08 06:35:58;;;;;;;6.95;5.05;;;5.50;72.80;;;;;;5022334;28;20052;-65
2021/05/08 06:38:23;;;;;;;7.15;5.00;;;5.60;72.70;;;;;;5018411;28;20587;-64
2021/05/08 06:40:49;;;;;;;7.82;5.05;;;5.70;72.40;;;;;;5018874;28;20037;-65
2021/05/08 06:43:17;;;;;;;10.75;5.60;;;5.70;72.40;;;;;;5018334;28;20037;-65
2021/05/08 06:45:43;;;;;;;8.45;5.53;;;5.80;72.50;;;;;;5020852;28;20029;-65
2021/05/08 06:48:11;;;;;;;7.00;5.40;;;5.90;72.70;;;;;;5020552;28;20062;-64
2021/05/08 06:50:39;;;;;;;7.32;5.68;;;6.00;72.90;;;;;;5017675;28;20033;-65
2021/05/08 06:53:07;;;;;;;6.95;5.57;;;6.10;72.70;;;;;;5023292;28;20094;-65
2021/05/08 06:55:33;;;;;;;10.13;5.75;;;6.20;72.40;;;;;;5017893;28;20045;-63
2021/05/08 06:58:01;;;;;;;6.47;5.28;;;6.30;72.40;;;;;;5024676;28;20035;-64
2021/05/08 07:00:27;;;;;;;6.85;5.50;;;6.30;72.20;;;;;;5018473;28;20037;-65
2021/05/08 07:02:55;;;;;;;8.95;5.40;;;6.40;72.20;;;;;;5023800;28;20079;-65
2021/05/08 07:05:26;;;;;;;7.43;5.20;;;6.40;72.10;;;;;;5022724;28;20423;-65
2021/05/08 07:08:11;;;;;;;6.95;4.97;;;6.50;72.20;;;;;;5022263;28;20045;-64
2021/05/08 07:10:48;;;;;;;5.53;4.65;;;6.60;72.90;;;;;;5014200;28;20030;-65
2021/05/08 07:13:20;;;;;;;5.75;4.60;;;6.70;72.70;;;;;;5017461;28;20045;-61
2021/05/08 07:15:48;;;;;;;7.25;4.95;;;6.80;72.20;;;;;;5018887;28;20041;-65
2021/05/08 07:18:19;;;;;;;5.80;4.75;;;7.00;72.20;;;;;;5017284;28;20044;-66
2021/05/08 07:20:47;;;;;;;9.93;5.28;;;7.10;72.10;;;;;;5018761;28;20489;-65
2021/05/08 07:23:17;;;;;;;5.80;5.00;;;7.20;71.90;;;;;;5021445;28;20131;-65
2021/05/08 07:25:48;;;;;;;5.60;4.75;;;7.30;71.80;;;;;;5018201;28;20043;-66
2021/05/08 07:28:23;;;;;;;5.78;4.45;;;7.40;72.00;;;;;;5018290;28;20252;-68
2021/05/08 07:30:53;;;;;;;8.52;4.95;;;7.50;72.30;;;;;;5015443;28;20116;-65
2021/05/08 07:33:26;;;;;;;5.53;4.90;;;7.60;72.00;;;;;;5019118;28;20033;-65
2021/05/08 07:35:56;;;;;;;6.45;5.05;;;7.70;71.90;;;;;;5024136;28;20029;-68
2021/05/08 07:38:25;;;;;;;5.22;4.72;;;7.80;71.80;;;;;;5024918;28;22399;-66
2021/05/08 07:40:53;;;;;;;7.18;4.95;;;8.00;71.60;;;;;;5020119;28;20120;-65
2021/05/08 07:43:23;;;;;;;5.82;5.18;;;8.10;71.60;;;;;;5019752;28;20120;-65
2021/05/08 07:45:49;;;;;;;5.18;4.60;;;8.20;71.50;;;;;;5027532;28;20045;-65
2021/05/08 07:48:21;;;;;;;5.30;4.20;;;8.30;71.30;;;;;;5020080;28;20045;-65
2021/05/08 07:50:49;;;;;;;5.25;4.22;;;8.40;70.90;;;;;;5033358;28;20030;-64
2021/05/08 07:53:19;;;;;;;5.13;4.45;;;8.50;70.70;;;;;;5036003;28;20374;-64
2021/05/08 07:55:50;;;;;;;5.32;4.30;;;8.60;70.70;;;;;;5039379;28;20512;-64
2021/05/08 07:58:21;;;;;;;5.07;3.97;;;8.80;70.60;;;;;;5037659;28;20040;-65
2021/05/08 08:00:51;;;;;;;5.57;4.10;;;8.90;70.50;;;;;;5036658;28;20056;-65
2021/05/08 08:03:17;;;;;;;4.35;3.95;;;9.00;71.40;;;;;;5037693;28;21266;-65
2021/05/08 08:05:47;;;;;;;4.75;4.25;;;9.10;70.40;;;;;;5037945;28;20033;-65
2021/05/08 08:08:18;;;;;;;6.22;4.75;;;9.30;70.50;;;;;;5039357;28;20447;-65
2021/05/08 08:10:48;;;;;;;5.97;4.28;;;9.40;70.40;;;;;;5037387;28;20499;-65
2021/05/08 08:13:14;;;;;;;5.07;4.07;;;9.50;70.20;;;;;;5038267;28;20539;-64
2021/05/08 08:15:42;;;;;;;5.03;3.83;;;9.70;70.10;;;;;;5038141;28;20042;-65
2021/05/08 08:18:12;;;;;;;5.25;3.90;;;9.80;69.90;;;;;;5038428;28;20037;-65
2021/05/08 08:20:42;;;;;;;4.28;3.78;;;9.90;69.20;;;;;;5037752;28;20057;-65
2021/05/08 08:23:10;;;;;;;4.78;3.33;;;10.00;69.00;;;;;;5037769;28;20467;-65
2021/05/08 08:25:39;;;;;;;4.03;3.22;;;10.20;68.50;;;;;;5041008;28;20091;-65
2021/05/08 08:28:08;;;;;;;4.40;3.83;;;10.40;68.00;;;;;;5036628;28;20460;-66
2021/05/08 08:30:35;;;;;;;4.20;3.80;;;10.50;67.70;;;;;;5035549;28;20045;-64
2021/05/08 08:33:03;;;;;;;4.22;3.38;;;10.60;67.80;;;;;;5031768;28;20053;-65
2021/05/08 08:35:31;;;;;;;4.10;3.70;;;10.70;67.30;;;;;;5026049;28;20057;-64
2021/05/08 08:37:59;;;;;;;4.00;3.70;;;10.90;67.10;;;;;;5031913;28;20595;-65
2021/05/08 08:40:27;;;;;;;4.18;3.63;;;11.00;67.10;;;;;;5026548;28;20052;-65
2021/05/08 08:42:53;;;;;;;5.53;3.28;;;11.10;66.80;;;;;;5025098;28;20501;-65
2021/05/08 08:45:23;;;;;;;3.60;3.30;;;11.20;66.90;;;;;;5027193;28;20052;-65
2021/05/08 08:47:52;;;;;;;3.40;3.10;;;11.40;66.70;;;;;;5026886;28;20775;-65
2021/05/08 08:50:20;;;;;;;4.05;3.40;;;11.50;66.40;;;;;;5023819;28;20050;-64
2021/05/08 08:52:48;;;;;;;4.18;3.42;;;11.70;65.70;;;;;;5027919;28;20704;-65
2021/05/08 08:55:14;;;;;;;4.70;3.60;;;11.80;65.50;;;;;;5025302;28;21054;-65
2021/05/08 08:57:44;;;;;;;4.70;3.30;;;12.00;65.50;;;;;;5026436;28;20040;-65
2021/05/08 09:00:17;;;;;;;3.60;3.30;;;12.10;65.30;;;;;;5026802;28;20040;-64
2021/05/08 09:02:48;;;;;;;4.55;2.80;;;12.20;64.80;;;;;;5027632;28;20037;-65
2021/05/08 09:05:20;;;;;;;3.45;3.15;;;12.40;64.60;;;;;;5029902;28;20041;-65
2021/05/08 09:07:48;;;;;;;4.03;3.13;;;12.50;64.30;;;;;;5030423;28;20586;-65
2021/05/08 09:10:27;;;;;;;3.78;3.47;;;12.60;64.30;;;;;;5031304;28;20033;-64
2021/05/08 09:12:58;;;;;;;3.60;3.28;;;12.80;63.70;;;;;;5036988;28;20454;-65
2021/05/08 09:15:44;;;;;;;3.35;3.05;;;12.90;63.60;;;;;;5038513;28;20378;-65
2021/05/08 09:18:34;;;;;;;3.30;3.00;;;13.00;62.20;;;;;;5038226;28;20437;-65
2021/05/08 09:21:02;;;;;;;3.60;3.30;;;13.20;61.90;;;;;;5038752;28;20034;-65
2021/05/08 09:23:41;;;;;;;4.60;2.70;;;13.30;62.10;;;;;;5038313;28;20032;-65
2021/05/08 09:26:17;;;;;;;3.30;2.95;;;13.40;61.20;;;;;;5038525;28;20072;-65
2021/05/08 09:28:56;;;;;;;3.92;3.60;;;13.50;60.30;;;;;;5037230;28;20843;-65
2021/05/08 09:31:26;;;;;;;3.60;3.30;;;13.60;60.80;;;;;;5037132;28;20061;-64
2021/05/08 09:33:53;;;;;;;3.72;2.50;;;13.80;60.90;;;;;;5036113;28;20037;-65
2021/05/08 09:36:21;;;;;;;2.45;1.70;;;13.90;61.20;;;;;;5036776;28;20128;-65
2021/05/08 09:38:47;;;;;;;1.88;1.75;;;14.00;60.60;;;;;;5035872;28;20412;-65
2021/05/08 09:41:16;;;;;;;2.55;1.92;;;14.20;60.10;;;;;;5037084;28;20404;-65
2021/05/08 09:43:45;;;;;;;3.25;1.98;;;14.40;59.30;;;;;;5038235;28;20032;-65
2021/05/08 09:46:28;;;;;;;3.90;2.97;;;14.50;59.70;;;;;;5045373;28;20131;-65
2021/05/08 09:49:19;;;;;;;4.32;3.30;;;14.70;59.40;;;;;;5036144;28;20029;-65
2021/05/08 09:51:56;;;;;;;3.28;2.90;;;14.80;58.50;;;;;;5032045;28;20029;-66
2021/05/08 09:54:24;;;;;;;4.78;3.17;;;14.90;57.50;;;;;;5032569;28;20516;-65
2021/05/08 09:56:54;;;;;;;3.38;3.08;;;14.90;57.90;;;;;;5029390;28;20467;-62
2021/05/08 09:59:27;;;;;;;2.92;2.70;;;15.00;57.50;;;;;;5033792;28;20030;-62
2021/05/08 10:02:14;;;;;;;2.60;2.40;;;15.00;57.60;;;;;;5035951;28;20025;-63
2021/05/08 10:04:48;;;;;;;2.22;2.03;;;15.10;56.20;;;;;;5036174;28;20037;-62
2021/05/08 10:07:18;;;;;;;1.88;1.63;;;15.10;57.40;;;;;;5034724;28;20025;-63
2021/05/08 10:09:49;;;;;;;3.00;1.50;;;15.20;57.00;;;;;;5043027;28;20053;-63
2021/05/08 10:12:19;;;;;;;1.10;1.00;;;15.30;56.80;;;;;;5034241;28;20439;-63
2021/05/08 10:14:48;;;;;;;1.08;0.90;;;15.40;56.30;;;;;;5045180;28;20406;-63
2021/05/08 10:17:17;;;;;;;2.42;0.95;;;15.50;55.90;;;;;;5036781;28;20033;-63
2021/05/08 10:19:47;;;;;;;1.05;1.00;;;15.60;56.10;;;;;;5033939;28;20036;-62
2021/05/08 10:22:16;;;;;;;1.25;0.88;;;15.70;56.00;;;;;;5035137;28;20501;-63
2021/05/08 10:24:46;;;;;;;0.98;0.90;;;15.80;55.20;;;;;;5037333;28;20444;-63
2021/05/08 10:27:15;;;;;;;1.00;0.90;;;15.90;54.90;;;;;;5034708;28;20098;-63
2021/05/08 10:29:46;;;;;;;2.08;1.88;;;16.00;55.00;;;;;;5036402;28;20021;-63
2021/05/08 10:32:14;;;;;;;1.67;1.50;;;16.10;53.90;;;;;;5037142;28;20041;-63
2021/05/08 10:35:01;;;;;;;3.35;1.40;;;16.20;53.70;;;;;;5032476;28;20033;-63
2021/05/08 10:37:30;;;;;;;1.40;1.20;;;16.20;51.00;;;;;;5033542;28;20073;-63
2021/05/08 10:40:10;;;;;;;1.58;1.30;;;16.20;52.40;;;;;;5034377;28;20030;-63
2021/05/08 10:42:49;;;;;;;1.80;1.35;;;16.20;51.30;;;;;;5034972;28;20041;-63
2021/05/08 10:45:23;;;;;;;1.55;1.45;;;16.30;51.10;;;;;;5036875;28;20074;-63
2021/05/08 10:48:04;;;;;;;1.33;1.23;;;16.20;51.70;;;;;;5037080;28;20112;-63
2021/05/08 10:50:38;;;;;;;0.70;0.70;;;16.30;52.60;;;;;;5034665;28;20284;-62
2021/05/08 10:53:16;;;;;;;1.67;0.68;;;16.30;52.40;;;;;;5033224;28;20038;-63
2021/05/08 10:55:51;;;;;;;1.27;0.70;;;16.30;52.50;;;;;;5037028;28;20030;-62
2021/05/08 10:58:17;;;;;;;;;;;16.40;52.70;;;;;;5035201;28;20109;-63
2021/05/08 11:01:05;;;;;;;0.88;0.68;;;16.50;52.70;;;;;;5034951;28;19956;-63
2021/05/08 11:03:46;;;;;;;1.67;0.80;;;16.60;52.20;;;;;;5043497;28;20083;-63
2021/05/08 11:06:17;;;;;;;1.10;0.70;;;16.60;53.60;;;;;;5032845;28;20041;-63
2021/05/08 11:08:49;;;;;;;0.98;0.70;;;16.70;52.20;;;;;;5035589;28;20048;-63
2021/05/08 11:11:16;;;;;;;2.55;0.93;;;16.80;51.80;;;;;;5033143;28;20032;-63
2021/05/08 11:14:03;;;;;;;0.88;0.88;;;16.90;52.10;;;;;;5034807;28;20040;-63
2021/05/08 11:16:32;;;;;;;1.13;0.80;;;16.90;52.00;;;;;;5037270;28;20034;-63
2021/05/08 11:19:20;;;;;;;0.82;0.80;;;17.00;52.00;;;;;;5035726;28;20045;-62
2021/05/08 11:21:50;;;;;;;0.80;0.80;;;17.10;51.30;;;;;;5035555;28;20455;-62
2021/05/08 11:24:34;;;;;;;1.17;0.90;;;17.20;51.80;;;;;;5036346;28;20042;-64
2021/05/08 11:27:02;;;;;;;1.20;0.82;;;17.30;51.10;;;;;;5032671;28;20118;-63
2021/05/08 11:29:32;;;;;;;0.90;0.80;;;17.40;51.60;;;;;;5034372;28;20037;-63
2021/05/08 11:32:04;;;;;;;2.53;1.00;;;17.40;51.40;;;;;;5036568;28;20135;-63
2021/05/08 11:34:35;;;;;;;1.10;1.00;;;17.50;51.60;;;;;;5033304;28;20033;-63
2021/05/08 11:37:12;;;;;;;1.10;1.00;;;17.60;51.40;;;;;;5036428;28;20110;-63
2021/05/08 11:39:49;;;;;;;0.80;0.80;;;17.70;50.80;;;;;;5031619;28;20389;-63
2021/05/08 11:42:24;;;;;;;1.48;0.90;;;17.80;50.10;;;;;;5035897;28;20029;-64
2021/05/08 11:44:55;;;;;;;;;;;17.80;50.10;;;;;;5033869;28;20698;-63
2021/05/08 11:50:06;;;;;;;0.95;0.90;;;18.00;51.00;;;;;;5034363;28;20472;-63
2021/05/08 11:52:38;;;;;;;1.20;0.90;;;18.00;50.90;;;;;;5033617;28;20475;-63
2021/05/08 11:55:29;;;;;;;1.50;1.15;;;18.10;50.20;;;;;;5035653;28;20401;-62
2021/05/08 11:58:01;;;;;;;2.40;0.77;;;18.10;49.50;;;;;;5034807;28;20119;-62
2021/05/08 12:00:32;;;;;;;1.30;0.80;;;18.20;50.10;;;;;;5033569;28;20690;-63
2021/05/08 12:03:14;;;;;;;0.75;0.73;;;18.20;49.30;;;;;;5036315;28;20045;-63
2021/05/08 12:05:44;;;;;;;1.42;1.33;;;18.20;48.40;;;;;;5033372;28;20030;-62
2021/05/08 12:08:12;;;;;;;0.70;0.70;;;18.20;49.50;;;;;;5034431;28;20120;-63
2021/05/08 12:10:41;;;;;;;2.42;0.75;;;18.20;50.40;;;;;;5031149;28;20053;-63
2021/05/08 12:13:07;;;;;;;1.02;0.65;;;18.20;50.20;;;;;;5035847;28;20467;-63
2021/05/08 12:15:40;;;;;;;0.85;0.55;;;18.20;49.00;;;;;;5034382;28;20060;-63
2021/05/08 12:18:15;;;;;;;0.57;0.57;;;18.20;48.80;;;;;;5036304;28;20409;-63
2021/05/08 12:20:47;;;;;;;0.60;0.60;;;18.20;48.50;;;;;;5039280;28;20045;-63
2021/05/08 12:23:27;;;;;;;0.88;0.55;;;18.20;48.70;;;;;;5037880;28;20516;-63
2021/05/08 12:26:11;;;;;;;0.93;0.63;;;18.30;48.60;;;;;;5036925;28;20510;-63
2021/05/08 12:28:49;;;;;;;0.95;0.40;;;18.40;48.60;;;;;;5038422;28;20030;-63
2021/05/08 12:31:34;;;;;;;0.38;0.38;;;18.40;49.10;;;;;;5037698;28;20116;-63
2021/05/08 12:34:00;;;;;;;0.77;0.50;;;18.50;47.80;;;;;;5035641;28;20090;-63
2021/05/08 12:36:30;;;;;;;0.82;0.75;;;18.60;48.50;;;;;;5037343;28;20124;-63
2021/05/08 12:39:19;;;;;;;0.90;0.40;;;18.60;48.30;;;;;;5038231;28;20905;-63
2021/05/08 12:41:56;;;;;;;0.70;0.47;;;18.70;47.30;;;;;;5036223;28;20033;-63
2021/05/08 12:44:39;;;;;;;0.55;0.43;;;18.80;47.50;;;;;;5036786;28;20520;-63
2021/05/08 12:47:24;;;;;;;0.68;0.47;;;18.80;47.70;;;;;;5037478;28;20124;-63
2021/05/08 12:50:12;;;;;;;0.35;0.30;;;18.90;48.00;;;;;;5037896;28;20061;-63
2021/05/08 12:52:42;;;;;;;1.10;0.40;;;18.90;46.20;;;;;;5037837;28;20056;-63
2021/05/08 12:55:25;;;;;;;0.50;0.30;;;19.00;46.30;;;;;;5035549;28;20512;-64
2021/05/08 12:57:53;;;;;;;0.30;0.30;;;19.00;45.10;;;;;;5035839;28;20029;-64
2021/05/08 13:00:24;;;;;;;0.40;0.40;;;19.00;46.00;;;;;;5044775;28;20039;-64
2021/05/08 13:02:54;;;;;;;0.80;0.30;;;19.10;46.00;;;;;;5038325;28;20381;-63
2021/05/08 13:05:24;;;;;;;2.45;0.73;;;19.10;46.20;;;;;;5035650;28;20030;-63
2021/05/08 13:08:01;;;;;;;0.35;0.30;;;19.10;45.30;;;;;;5037621;28;20036;-63
2021/05/08 13:10:37;;;;;;;0.22;0.20;;;19.10;45.70;;;;;;5032204;28;20583;-64
2021/05/08 13:13:25;;;;;;;0.68;0.40;;;19.20;44.30;;;;;;5037805;28;20037;-63